Strona główna
METAR-TAF:

METAR-TAF

Lotnisko :

Port lotniczy Wagadugu

Wagadugu, Burkina Faso

Szerokość geograficzna: 12-21N, Długość geograficzna: 001-31W, wysokość: 316 m

Aktualna obserwacja pogody

Raport powstał 27 minut temu, godzina 17:00 UTC
Wiatr 7 kt od południowo-południowy zachód
Temperatura 32°C
Wilgotność 59%
Ciśnienie 1010 hPa
Widzialność 10 km lub więcej
Brak chmur poniżej 1500 m i brak chmur cumulonimbus

METAR: DFFD 251700Z 20007KT CAVOK 32/23 Q1010 NOSIG

czas: 17:27 (17:27 UTC)

Prognoza

Raport powstał 6 godziny i 27 minut temu, godzina 11:00 UTC
Prognoza ważna od 25 godzina 12 UTC do 26 godzina 18 UTC
Wiatr 8 kt od południe
Widzialność 10 km lub więcej
Rozproszone chmury na wysokości 2300 ft
Prawdopodobieństwo 30% :
Przejściowo
od 25 godzina 14 UTC do 25 godzina 24 UTC
Widzialność: 4000 m
Rozproszone chmury na wysokości 2300 ft
Mało chmury na wysokości 3600 ft, Cumulonimbus.
burza, deszcz,

TAF: DFFD 251100Z 2512/2618 18008KT 9999 SCT023 PROB30 TEMPO 2514/2524 4000 TSRA SCT023 FEW036CB

Obserwacja i prognoza pogody dla ponad 4000 lotnisk (raport METAR i TAF).

Dostępne stacje oznaczono żółtymi i czerwonymi punktami na mapie.

Najedź kursorem aby zobaczyć nazwę stacji.

Kliknij aby zobaczyć obserwacje i prognozy pogody.

Aby zmienić mapę: kliknij na zielony przycisk z czarnym krzyżykiem, aby powiększyć; na zielony przycisk z myślnikiem, aby pomniejszyć; na zielone strzałki, aby przejść do map sąsiednich.


METAR-TAF: